^^
Grace C. Lehan Memorial Weather Station Historical Data
Daily Summary for August 6, 2021 Units:  Both    English   Metric
Daily Weekly Monthly Yearly
  High: Low: Average:
Temperature: 91.6 °F /  33.1 °C 64.4 °F /  18 °C 76.5 °F /  24.7 °C
Dew Point: 72.6 °F /  22.6 °C 62.5 °F /  16.9 °C 66.4 °F /  19.1 °C
Humidity: 97% 39% 75%
Wind Speed: 2.8mph /  4.5km/h - 0.1mph /  0.2km/h
Wind Gust: 11mph /  17.7km/h - -
Wind- - West
Pressure: 30.13 in /  1020.2 hPa 30.05 in /  1017.5 hPa -
Precipitation: 0.00 in /  0 mm    
 
 
Tabular Data for August 6, 2021
Time Temperature Dew Point Pressure Wind Wind Speed Wind Gust Humidity Rainfall Rate (Hourly) solar
00:00 66.6 °F /  19.2 °C 64.2 °F /  17.9 °C 30.08in /  1018.5hPa Calm     92% 0.00in /  0mm 0 W/m2
00:09 66.4 °F /  19.1 °C 64 °F /  17.8 °C 30.08in /  1018.5hPa Calm     92% 0.00in /  0mm 0 W/m2
00:14 66.3 °F /  19.1 °C 63.9 °F /  17.7 °C 30.08in /  1018.5hPa Calm     92% 0.00in /  0mm 0 W/m2
00:19 66.4 °F /  19.1 °C 64.2 °F /  17.9 °C 30.08in /  1018.5hPa Calm     92.7% 0.00in /  0mm 0 W/m2
00:24 66.4 °F /  19.1 °C 64.3 °F /  17.9 °C 30.09in /  1018.8hPa Calm     93% 0.00in /  0mm 0 W/m2
00:29 66.3 °F /  19.1 °C 64.2 °F /  17.9 °C 30.08in /  1018.5hPa Calm     93% 0.00in /  0mm 0 W/m2
00:34 66.3 °F /  19.1 °C 64.2 °F /  17.9 °C 30.08in /  1018.5hPa Calm     93% 0.00in /  0mm 0 W/m2
00:39 66.2 °F /  19 °C 64.2 °F /  17.9 °C 30.09in /  1018.8hPa Calm     93% 0.00in /  0mm 0 W/m2
00:44 66.2 °F /  19 °C 64.1 °F /  17.8 °C 30.09in /  1018.8hPa Calm     93% 0.00in /  0mm 0 W/m2
00:49 66.2 °F /  19 °C 64.3 °F /  17.9 °C 30.09in /  1018.8hPa Calm     93.5% 0.00in /  0mm 0 W/m2
00:54 66.1 °F /  18.9 °C 64.4 °F /  18 °C 30.09in /  1018.8hPa Calm     94% 0.00in /  0mm 0 W/m2
00:59 66.1 °F /  18.9 °C 64 °F /  17.8 °C 30.09in /  1018.8hPa Calm     93.1% 0.00in /  0mm 0 W/m2
01:04 65.9 °F /  18.8 °C 63.8 °F /  17.7 °C 30.09in /  1018.8hPa Calm     93% 0.00in /  0mm 0 W/m2
01:09 65.8 °F /  18.8 °C 63.7 °F /  17.6 °C 30.09in /  1018.8hPa Calm     93% 0.00in /  0mm 0 W/m2
01:14 65.7 °F /  18.7 °C 63.6 °F /  17.6 °C 30.09in /  1018.8hPa Calm     93.1% 0.00in /  0mm 0 W/m2
01:19 65.6 °F /  18.7 °C 63.9 °F /  17.7 °C 30.09in /  1018.8hPa Calm     94% 0.00in /  0mm 0 W/m2
01:24 65.6 °F /  18.7 °C 63.8 °F /  17.7 °C 30.09in /  1018.8hPa Calm     94% 0.00in /  0mm 0 W/m2
01:29 65.6 °F /  18.7 °C 63.8 °F /  17.7 °C 30.09in /  1018.8hPa Calm     94% 0.00in /  0mm 0 W/m2
01:34 65.6 °F /  18.7 °C 63.8 °F /  17.7 °C 30.09in /  1018.8hPa Calm     94% 0.00in /  0mm 0 W/m2
01:39 65.5 °F /  18.6 °C 63.8 °F /  17.7 °C 30.09in /  1018.8hPa Calm     94% 0.00in /  0mm 0 W/m2
01:44 65.6 °F /  18.7 °C 63.8 °F /  17.7 °C 30.09in /  1018.8hPa Calm     94% 0.00in /  0mm 0 W/m2
01:49 65.6 °F /  18.7 °C 63.8 °F /  17.7 °C 30.09in /  1018.8hPa Calm     94% 0.00in /  0mm 0 W/m2
01:54 65.5 °F /  18.6 °C 63.7 °F /  17.6 °C 30.09in /  1018.8hPa Calm     94% 0.00in /  0mm 0 W/m2
01:59 65.4 °F /  18.6 °C 63.6 °F /  17.6 °C 30.09in /  1018.8hPa Calm     94% 0.00in /  0mm 0 W/m2
02:04 65.4 °F /  18.6 °C 63.8 °F /  17.7 °C 30.09in /  1018.8hPa Calm     94.5% 0.00in /  0mm 0 W/m2
02:09 65.5 °F /  18.6 °C 64 °F /  17.8 °C 30.09in /  1018.8hPa Calm     95% 0.00in /  0mm 0 W/m2
02:14 65.5 °F /  18.6 °C 64 °F /  17.8 °C 30.09in /  1018.8hPa Calm     95% 0.00in /  0mm 0 W/m2
02:19 65.4 °F /  18.6 °C 63.9 °F /  17.7 °C 30.09in /  1018.8hPa Calm     95% 0.00in /  0mm 0 W/m2
02:24 65.3 °F /  18.5 °C 63.6 °F /  17.6 °C 30.09in /  1018.8hPa Calm     94.1% 0.00in /  0mm 0 W/m2
02:29 65.3 °F /  18.5 °C 63.5 °F /  17.5 °C 30.09in /  1018.8hPa Calm     94% 0.00in /  0mm 0 W/m2
02:34 65.3 °F /  18.5 °C 63.8 °F /  17.7 °C 30.09in /  1018.8hPa Calm     94.8% 0.00in /  0mm 0 W/m2
02:39 65.3 °F /  18.5 °C 63.8 °F /  17.7 °C 30.09in /  1018.8hPa Calm     95% 0.00in /  0mm 0 W/m2
02:44 65.3 °F /  18.5 °C 63.8 °F /  17.7 °C 30.09in /  1018.8hPa Calm     95% 0.00in /  0mm 0 W/m2
02:49 65.2 °F /  18.4 °C 63.7 °F /  17.6 °C 30.09in /  1018.8hPa Calm     95% 0.00in /  0mm 0 W/m2
02:54 65.1 °F /  18.4 °C 63.6 °F /  17.6 °C 30.09in /  1018.8hPa Calm     95% 0.00in /  0mm 0 W/m2
02:59 65.1 °F /  18.4 °C 63.6 °F /  17.6 °C 30.09in /  1018.8hPa Calm     95% 0.00in /  0mm 0 W/m2
03:04 65.1 °F /  18.4 °C 63.6 °F /  17.6 °C 30.09in /  1018.8hPa Calm     95% 0.00in /  0mm 0 W/m2
03:09 65.1 °F /  18.4 °C 63.6 °F /  17.6 °C 30.09in /  1018.8hPa Calm     95% 0.00in /  0mm 0 W/m2
03:14 65.1 °F /  18.4 °C 63.6 °F /  17.6 °C 30.09in /  1018.8hPa Calm     95% 0.00in /  0mm 0 W/m2
03:19 65.2 °F /  18.4 °C 63.7 °F /  17.6 °C 30.09in /  1018.8hPa Calm     95% 0.00in /  0mm 0 W/m2
03:24 65.2 °F /  18.4 °C 63.7 °F /  17.6 °C 30.09in /  1018.8hPa Calm     95% 0.00in /  0mm 0 W/m2
03:29 65.2 °F /  18.4 °C 63.7 °F /  17.6 °C 30.09in /  1018.8hPa Calm     95% 0.00in /  0mm 0 W/m2
03:34 65.1 °F /  18.4 °C 63.7 °F /  17.6 °C 30.09in /  1018.8hPa Calm     95% 0.00in /  0mm 0 W/m2
03:39 65.1 °F /  18.4 °C 63.6 °F /  17.6 °C 30.09in /  1018.8hPa Calm     95% 0.00in /  0mm 0 W/m2
03:44 65 °F /  18.3 °C 63.5 °F /  17.5 °C 30.09in /  1018.8hPa Calm     95% 0.00in /  0mm 0 W/m2
03:49 65 °F /  18.3 °C 63.5 °F /  17.5 °C 30.09in /  1018.8hPa Calm     95% 0.00in /  0mm 0 W/m2
03:54 65 °F /  18.3 °C 63.5 °F /  17.5 °C 30.09in /  1018.8hPa Calm     95% 0.00in /  0mm 0 W/m2
03:59 65 °F /  18.3 °C 63.5 °F /  17.5 °C 30.09in /  1018.8hPa Calm     95% 0.00in /  0mm 0 W/m2
04:00 65 °F /  18.3 °C 63.5 °F /  17.5 °C 30.09in /  1018.8hPa Calm     95% 0.00in /  0mm 0 W/m2
04:09 65 °F /  18.3 °C 63.5 °F /  17.5 °C 30.09in /  1018.8hPa Calm     95% 0.00in /  0mm 0 W/m2
04:14 65 °F /  18.3 °C 63.5 °F /  17.5 °C 30.09in /  1018.8hPa Calm     95% 0.00in /  0mm 0 W/m2
04:19 65 °F /  18.3 °C 63.5 °F /  17.5 °C 30.10in /  1019.2hPa Calm     95% 0.00in /  0mm 0 W/m2
04:24 65 °F /  18.3 °C 63.8 °F /  17.7 °C 30.09in /  1018.8hPa Calm     95.9% 0.00in /  0mm 0 W/m2
04:29 65.2 °F /  18.4 °C 64 °F /  17.8 °C 30.09in /  1018.8hPa Calm     96% 0.00in /  0mm 0 W/m2
04:34 65.4 °F /  18.6 °C 64.2 °F /  17.9 °C 30.09in /  1018.8hPa Calm     96% 0.00in /  0mm 0 W/m2
04:39 65.4 °F /  18.6 °C 64.2 °F /  17.9 °C 30.10in /  1019.2hPa Calm     96% 0.00in /  0mm 0 W/m2
04:44 65.4 °F /  18.6 °C 64.2 °F /  17.9 °C 30.10in /  1019.2hPa Calm     96% 0.00in /  0mm 0 W/m2
04:49 65.5 °F /  18.6 °C 64.3 °F /  17.9 °C 30.10in /  1019.2hPa Calm     96% 0.00in /  0mm 0 W/m2
04:54 65.4 °F /  18.6 °C 64.3 °F /  17.9 °C 30.10in /  1019.2hPa Calm     96% 0.00in /  0mm 0 W/m2
04:59 65.3 °F /  18.5 °C 63.9 °F /  17.7 °C 30.10in /  1019.2hPa Calm     95.2% 0.00in /  0mm 0 W/m2
05:04 65.2 °F /  18.4 °C 63.8 °F /  17.7 °C 30.10in /  1019.2hPa Calm     95.5% 0.00in /  0mm 0 W/m2
05:09 65 °F /  18.3 °C 63.6 °F /  17.6 °C 30.10in /  1019.2hPa Calm     95% 0.00in /  0mm 0 W/m2
05:14 64.9 °F /  18.3 °C 63.8 °F /  17.7 °C 30.10in /  1019.2hPa Calm     95.9% 0.00in /  0mm 0 W/m2
05:19 64.8 °F /  18.2 °C 63.4 °F /  17.4 °C 30.10in /  1019.2hPa Calm     95.1% 0.00in /  0mm 0 W/m2
05:24 64.8 °F /  18.2 °C 63.3 °F /  17.4 °C 30.10in /  1019.2hPa Calm     95% 0.00in /  0mm 0 W/m2
05:29 64.7 °F /  18.2 °C 63.3 °F /  17.4 °C 30.10in /  1019.2hPa Calm     95.3% 0.00in /  0mm 0 W/m2
05:34 64.7 °F /  18.2 °C 63.6 °F /  17.6 °C 30.10in /  1019.2hPa Calm     96% 0.00in /  0mm 0 W/m2
05:39 64.7 °F /  18.2 °C 63.5 °F /  17.5 °C 30.10in /  1019.2hPa Calm     96% 0.00in /  0mm 0 W/m2
05:44 64.6 °F /  18.1 °C 63.2 °F /  17.3 °C 30.10in /  1019.2hPa Calm     95.4% 0.00in /  0mm 0 W/m2
05:49 64.5 °F /  18.1 °C 63.3 °F /  17.4 °C 30.10in /  1019.2hPa Calm     96% 0.00in /  0mm 0 W/m2
05:54 64.4 °F /  18 °C 63.2 °F /  17.3 °C 30.10in /  1019.2hPa Calm     96% 0.00in /  0mm 0 W/m2
05:59 64.4 °F /  18 °C 63.2 °F /  17.3 °C 30.11in /  1019.5hPa Calm     96% 0.00in /  0mm 0 W/m2
06:04 64.4 °F /  18 °C 63.2 °F /  17.3 °C 30.11in /  1019.5hPa Calm     96% 0.00in /  0mm 5 W/m2
06:09 64.4 °F /  18 °C 63.2 °F /  17.3 °C 30.11in /  1019.5hPa Calm     96% 0.00in /  0mm 9 W/m2
06:14 64.4 °F /  18 °C 63.3 °F /  17.4 °C 30.11in /  1019.5hPa Calm     96% 0.00in /  0mm 12 W/m2
06:19 64.4 °F /  18 °C 63.3 °F /  17.4 °C 30.11in /  1019.5hPa Calm     96% 0.00in /  0mm 16 W/m2
06:24 64.5 °F /  18.1 °C 63.3 °F /  17.4 °C 30.11in /  1019.5hPa Calm     96% 0.00in /  0mm 21 W/m2
06:29 64.5 °F /  18.1 °C 63.3 °F /  17.4 °C 30.11in /  1019.5hPa Calm     96% 0.00in /  0mm 26 W/m2
06:34 64.5 °F /  18.1 °C 63.3 °F /  17.4 °C 30.11in /  1019.5hPa Calm     96% 0.00in /  0mm 33 W/m2
06:39 64.6 °F /  18.1 °C 63.4 °F /  17.4 °C 30.11in /  1019.5hPa Calm     96% 0.00in /  0mm 44 W/m2
06:44 64.7 °F /  18.2 °C 63.5 °F /  17.5 °C 30.11in /  1019.5hPa Calm     96% 0.00in /  0mm 47 W/m2
06:49 64.8 °F /  18.2 °C 63.7 °F /  17.6 °C 30.11in /  1019.5hPa Calm     96% 0.00in /  0mm 91 W/m2
06:54 65.1 °F /  18.4 °C 63.9 °F /  17.7 °C 30.11in /  1019.5hPa Calm     96% 0.00in /  0mm 109 W/m2
06:59 65.5 °F /  18.6 °C 64.4 °F /  18 °C 30.11in /  1019.5hPa Calm     96% 0.00in /  0mm 113 W/m2
07:04 66 °F /  18.9 °C 65.1 °F /  18.4 °C 30.11in /  1019.5hPa Calm     97% 0.00in /  0mm 151 W/m2
07:09 66.4 °F /  19.1 °C 65.5 °F /  18.6 °C 30.12in /  1019.9hPa Calm     97% 0.00in /  0mm 165 W/m2
07:14 66.7 °F /  19.3 °C 65.8 °F /  18.8 °C 30.12in /  1019.9hPa Calm     97% 0.00in /  0mm 121 W/m2
07:19 66.7 °F /  19.3 °C 65.6 °F /  18.7 °C 30.12in /  1019.9hPa Calm     96.4% 0.00in /  0mm 111 W/m2
07:24 66.7 °F /  19.3 °C 65.5 °F /  18.6 °C 30.12in /  1019.9hPa Calm     96% 0.00in /  0mm 86 W/m2
07:29 66.6 °F /  19.2 °C 65.5 °F /  18.6 °C 30.12in /  1019.9hPa Calm     96% 0.00in /  0mm 86 W/m2
07:34 66.7 °F /  19.3 °C 65.5 °F /  18.6 °C 30.12in /  1019.9hPa Calm     96% 0.00in /  0mm 105 W/m2
07:39 66.8 °F /  19.3 °C 65.7 °F /  18.7 °C 30.12in /  1019.9hPa Calm     96% 0.00in /  0mm 111 W/m2
07:44 67 °F /  19.4 °C 65.9 °F /  18.8 °C 30.12in /  1019.9hPa Calm     96% 0.00in /  0mm 148 W/m2
07:49 67.2 °F /  19.6 °C 66 °F /  18.9 °C 30.12in /  1019.9hPa Calm     96% 0.00in /  0mm 142 W/m2
07:54 67.4 °F /  19.7 °C 66.2 °F /  19 °C 30.13in /  1020.2hPa Calm     96% 0.00in /  0mm 135 W/m2
07:59 67.5 °F /  19.7 °C 66.3 °F /  19.1 °C 30.12in /  1019.9hPa Calm     96% 0.00in /  0mm 132 W/m2
08:00 67.4 °F /  19.7 °C 66.2 °F /  19 °C 30.12in /  1019.9hPa Calm     96% 0.00in /  0mm 98 W/m2
08:09 67.7 °F /  19.8 °C 66.5 °F /  19.2 °C 30.12in /  1019.9hPa Calm     96% 0.00in /  0mm 353 W/m2
08:14 68.4 °F /  20.2 °C 67.2 °F /  19.6 °C 30.13in /  1020.2hPa Calm     96% 0.00in /  0mm 355 W/m2
08:19 69.1 °F /  20.6 °C 68.1 °F /  20.1 °C 30.13in /  1020.2hPa Calm     96.5% 0.00in /  0mm 378 W/m2
08:24 69.7 °F /  20.9 °C 68.5 °F /  20.3 °C 30.12in /  1019.9hPa Calm     96% 0.00in /  0mm 392 W/m2
08:29 70.5 °F /  21.4 °C 69.3 °F /  20.7 °C 30.12in /  1019.9hPa Calm     96% 0.00in /  0mm 410 W/m2
08:34 71.3 °F /  21.8 °C 70 °F /  21.1 °C 30.13in /  1020.2hPa Calm     95.4% 0.00in /  0mm 434 W/m2
08:39 72.2 °F /  22.3 °C 70.2 °F /  21.2 °C 30.13in /  1020.2hPa Calm     93.3% 0.00in /  0mm 441 W/m2
08:44 73 °F /  22.8 °C 70.3 °F /  21.3 °C 30.13in /  1020.2hPa Calm     91.3% 0.00in /  0mm 457 W/m2
08:49 73.9 °F /  23.3 °C 70.4 °F /  21.3 °C 30.13in /  1020.2hPa Calm     88.8% 0.00in /  0mm 469 W/m2
08:54 74.6 °F /  23.7 °C 70.1 °F /  21.2 °C 30.13in /  1020.2hPa Calm     86% 0.00in /  0mm 494 W/m2
08:59 75.4 °F /  24.1 °C 70.7 °F /  21.5 °C 30.13in /  1020.2hPa Calm     85.4% 0.00in /  0mm 513 W/m2
09:04 76.1 °F /  24.5 °C 70.6 °F /  21.4 °C 30.13in /  1020.2hPa Calm     83.2% 0.00in /  0mm 527 W/m2
09:09 76.9 °F /  24.9 °C 71 °F /  21.7 °C 30.13in /  1020.2hPa Calm     82.2% 0.00in /  0mm 547 W/m2
09:14 77.6 °F /  25.3 °C 70.8 °F /  21.6 °C 30.12in /  1019.9hPa Calm     79.6% 0.00in /  0mm 561 W/m2
09:19 78.1 °F /  25.6 °C 71 °F /  21.7 °C 30.12in /  1019.9hPa Calm     78.8% 0.00in /  0mm 570 W/m2
09:24 78.6 °F /  25.9 °C 71.1 °F /  21.7 °C 30.12in /  1019.9hPa Calm     77.7% 0.00in /  0mm 587 W/m2
09:29 79.2 °F /  26.2 °C 71.3 °F /  21.8 °C 30.12in /  1019.9hPa Calm     76.9% 0.00in /  0mm 596 W/m2
09:34 79.8 °F /  26.6 °C 71.3 °F /  21.8 °C 30.12in /  1019.9hPa Calm     75.4% 0.00in /  0mm 617 W/m2
09:39 80 °F /  26.7 °C 71.3 °F /  21.8 °C 30.12in /  1019.9hPa Calm     74.8% 0.00in /  0mm 636 W/m2
09:44 80.3 °F /  26.8 °C 71.9 °F /  22.2 °C 30.12in /  1019.9hPa Calm     75.6% 0.00in /  0mm 652 W/m2
09:49 80.9 °F /  27.2 °C 71.6 °F /  22 °C 30.12in /  1019.9hPa Calm     73.4% 0.00in /  0mm 664 W/m2
09:54 81.4 °F /  27.4 °C 71.5 °F /  21.9 °C 30.12in /  1019.9hPa Calm     71.9% 0.00in /  0mm 675 W/m2
09:59 81.6 °F /  27.6 °C 71 °F /  21.7 °C 30.12in /  1019.9hPa Calm     70.2% 0.00in /  0mm 686 W/m2
10:04 81.8 °F /  27.7 °C 71.5 °F /  21.9 °C 30.12in /  1019.9hPa Calm     71% 0.00in /  0mm 700 W/m2
10:09 82.2 °F /  27.9 °C 71.7 °F /  22.1 °C 30.12in /  1019.9hPa Calm     70.6% 0.00in /  0mm 714 W/m2
10:14 82.6 °F /  28.1 °C 71.4 °F /  21.9 °C 30.12in /  1019.9hPa Calm     68.9% 0.00in /  0mm 722 W/m2
10:19 83 °F /  28.3 °C 72.1 °F /  22.3 °C 30.12in /  1019.9hPa Calm     69.6% 0.00in /  0mm 742 W/m2
10:24 83.4 °F /  28.6 °C 71.6 °F /  22 °C 30.12in /  1019.9hPa Calm     67.6% 0.00in /  0mm 756 W/m2
10:29 83.7 °F /  28.7 °C 71.8 °F /  22.1 °C 30.12in /  1019.9hPa Calm     67.4% 0.00in /  0mm 770 W/m2
10:34 84.1 °F /  28.9 °C 71.5 °F /  21.9 °C 30.12in /  1019.9hPa Calm     66.1% 0.00in /  0mm 763 W/m2
10:38 84.3 °F /  29.1 °C 71.9 °F /  22.2 °C 30.12in /  1019.9hPa Calm     66.5% 0.00in /  0mm 800 W/m2
10:44 84.7 °F /  29.3 °C 71.5 °F /  21.9 °C 30.12in /  1019.9hPa Calm     64.8% 0.00in /  0mm 800 W/m2
10:49 85.2 °F /  29.6 °C 72.1 °F /  22.3 °C 30.12in /  1019.9hPa Calm     64.9% 0.00in /  0mm 796 W/m2
10:54 85.7 °F /  29.8 °C 72.6 °F /  22.6 °C 30.12in /  1019.9hPa Calm     65% 0.00in /  0mm 803 W/m2
10:59 86.1 °F /  30.1 °C 71.2 °F /  21.8 °C 30.12in /  1019.9hPa Calm     61.1% 0.00in /  0mm 810 W/m2
11:04 86.4 °F /  30.2 °C 71 °F /  21.7 °C 30.12in /  1019.9hPa Calm     60.2% 0.00in /  0mm 816 W/m2
11:09 86.6 °F /  30.3 °C 71.7 °F /  22.1 °C 30.12in /  1019.9hPa Calm     61.3% 0.00in /  0mm 824 W/m2
11:14 86.8 °F /  30.4 °C 70.9 °F /  21.6 °C 30.12in /  1019.9hPa Calm     59.3% 0.00in /  0mm 833 W/m2
11:19 86.8 °F /  30.4 °C 70.5 °F /  21.4 °C 30.12in /  1019.9hPa Calm     58.5% 0.00in /  0mm 837 W/m2
11:24 87 °F /  30.6 °C 70.2 °F /  21.2 °C 30.12in /  1019.9hPa Calm     57.4% 0.00in /  0mm 844 W/m2
11:29 87.3 °F /  30.7 °C 71.3 °F /  21.8 °C 30.12in /  1019.9hPa Calm     59.2% 0.00in /  0mm 844 W/m2
11:34 87.7 °F /  30.9 °C 69.7 °F /  20.9 °C 30.12in /  1019.9hPa West 0.3mph /  0.5km/h 4mph /  6.4km/h 55.5% 0.00in /  0mm 858 W/m2
11:39 87.8 °F /  31 °C 68.8 °F /  20.4 °C 30.12in /  1019.9hPa Calm   4mph /  6.4km/h 53.4% 0.00in /  0mm 860 W/m2
11:44 87.9 °F /  31.1 °C 69.8 °F /  21 °C 30.12in /  1019.9hPa Calm   4mph /  6.4km/h 55.3% 0.00in /  0mm 863 W/m2
11:49 88.1 °F /  31.2 °C 68.6 °F /  20.3 °C 30.12in /  1019.9hPa Calm   4mph /  6.4km/h 52.6% 0.00in /  0mm 882 W/m2
11:54 88.2 °F /  31.2 °C 69.5 °F /  20.8 °C 30.11in /  1019.5hPa West 0.1mph /  0.2km/h 4mph /  6.4km/h 54.2% 0.00in /  0mm 895 W/m2
11:59 88.4 °F /  31.3 °C 68.9 °F /  20.5 °C 30.11in /  1019.5hPa Calm   4mph /  6.4km/h 52.6% 0.00in /  0mm 886 W/m2
12:00 88.5 °F /  31.4 °C 66.9 °F /  19.4 °C 30.11in /  1019.5hPa Calm   4mph /  6.4km/h 49% 0.00in /  0mm 881 W/m2
12:09 88.6 °F /  31.4 °C 67.9 °F /  19.9 °C 30.11in /  1019.5hPa WNW 0.1mph /  0.2km/h 3mph /  4.8km/h 50.6% 0.00in /  0mm 909 W/m2
12:14 88.6 °F /  31.4 °C 67.5 °F /  19.7 °C 30.11in /  1019.5hPa Calm   3mph /  4.8km/h 49.7% 0.00in /  0mm 905 W/m2
12:19 88.6 °F /  31.4 °C 67.8 °F /  19.9 °C 30.11in /  1019.5hPa WNW 0.2mph /  0.3km/h 4mph /  6.4km/h 50.4% 0.00in /  0mm 916 W/m2
12:24 88.8 °F /  31.6 °C 68.5 °F /  20.3 °C 30.11in /  1019.5hPa Calm   4mph /  6.4km/h 51.3% 0.00in /  0mm 935 W/m2
12:29 89 °F /  31.7 °C 68.5 °F /  20.3 °C 30.11in /  1019.5hPa Calm   4mph /  6.4km/h 51% 0.00in /  0mm 977 W/m2
12:34 88.8 °F /  31.6 °C 69.3 °F /  20.7 °C 30.11in /  1019.5hPa Calm   4mph /  6.4km/h 52.7% 0.00in /  0mm 977 W/m2
12:39 88.6 °F /  31.4 °C 69.8 °F /  21 °C 30.11in /  1019.5hPa Calm     54% 0.00in /  0mm 958 W/m2
12:44 88.7 °F /  31.5 °C 69.3 °F /  20.7 °C 30.11in /  1019.5hPa Calm     52.9% 0.00in /  0mm 926 W/m2
12:49 88.9 °F /  31.6 °C 67.8 °F /  19.9 °C 30.11in /  1019.5hPa Calm     49.8% 0.00in /  0mm 930 W/m2
12:54 89 °F /  31.7 °C 68.4 °F /  20.2 °C 30.11in /  1019.5hPa Calm   1mph /  1.6km/h 50.8% 0.00in /  0mm 930 W/m2
12:59 89 °F /  31.7 °C 67 °F /  19.4 °C 30.11in /  1019.5hPa Calm   1mph /  1.6km/h 48.4% 0.00in /  0mm 937 W/m2
13:04 88.8 °F /  31.6 °C 66.3 °F /  19.1 °C 30.11in /  1019.5hPa Calm   1mph /  1.6km/h 47.5% 0.00in /  0mm 396 W/m2
13:09 88.6 °F /  31.4 °C 66.6 °F /  19.2 °C 30.11in /  1019.5hPa Calm     48.4% 0.00in /  0mm 956 W/m2
13:14 88.7 °F /  31.5 °C 67.4 °F /  19.7 °C 30.10in /  1019.2hPa Calm     49.6% 0.00in /  0mm 956 W/m2
13:19 89 °F /  31.7 °C 67.6 °F /  19.8 °C 30.10in /  1019.2hPa Calm     49.5% 0.00in /  0mm 902 W/m2
13:24 88.8 °F /  31.6 °C 67.3 °F /  19.6 °C 30.10in /  1019.2hPa Calm   1mph /  1.6km/h 49.1% 0.00in /  0mm 962 W/m2
13:29 88.7 °F /  31.5 °C 67.5 °F /  19.7 °C 30.10in /  1019.2hPa Calm   1mph /  1.6km/h 49.7% 0.00in /  0mm 962 W/m2
13:34 89 °F /  31.7 °C 68.9 °F /  20.5 °C 30.10in /  1019.2hPa Calm   2mph /  3.2km/h 51.5% 0.00in /  0mm 947 W/m2
13:39 89.6 °F /  32 °C 68.4 °F /  20.2 °C 30.10in /  1019.2hPa Calm   2mph /  3.2km/h 49.9% 0.00in /  0mm 930 W/m2
13:44 90 °F /  32.2 °C 67.9 °F /  19.9 °C 30.10in /  1019.2hPa Calm   2mph /  3.2km/h 48.5% 0.00in /  0mm 923 W/m2
13:49 90.1 °F /  32.3 °C 66.9 °F /  19.4 °C 30.10in /  1019.2hPa Calm   2mph /  3.2km/h 46.6% 0.00in /  0mm 918 W/m2
13:54 90 °F /  32.2 °C 67 °F /  19.4 °C 30.10in /  1019.2hPa Calm   2mph /  3.2km/h 46.7% 0.00in /  0mm 916 W/m2
13:59 90.3 °F /  32.4 °C 67.1 °F /  19.5 °C 30.10in /  1019.2hPa Calm   2mph /  3.2km/h 46.7% 0.00in /  0mm 911 W/m2
14:04 90.6 °F /  32.6 °C 67 °F /  19.4 °C 30.10in /  1019.2hPa Calm   2mph /  3.2km/h 46.1% 0.00in /  0mm 930 W/m2
14:09 90.8 °F /  32.7 °C 67.2 °F /  19.6 °C 30.09in /  1018.8hPa Calm     46.1% 0.00in /  0mm 921 W/m2
14:14 90.8 °F /  32.7 °C 66.4 °F /  19.1 °C 30.09in /  1018.8hPa Calm     44.8% 0.00in /  0mm 912 W/m2
14:19 90.6 °F /  32.6 °C 67 °F /  19.4 °C 30.09in /  1018.8hPa West 0.1mph /  0.2km/h 5mph /  8km/h 46% 0.00in /  0mm 925 W/m2
14:24 90.3 °F /  32.4 °C 67.1 °F /  19.5 °C 30.09in /  1018.8hPa Calm   5mph /  8km/h 46.6% 0.00in /  0mm 895 W/m2
14:29 90.5 °F /  32.5 °C 67.4 °F /  19.7 °C 30.08in /  1018.5hPa Calm   5mph /  8km/h 46.9% 0.00in /  0mm 905 W/m2
14:34 90.6 °F /  32.6 °C 66.8 °F /  19.3 °C 30.08in /  1018.5hPa Calm   5mph /  8km/h 45.7% 0.00in /  0mm 900 W/m2
14:39 90.7 °F /  32.6 °C 67.2 °F /  19.6 °C 30.08in /  1018.5hPa WSW 0.1mph /  0.2km/h 4mph /  6.4km/h 46.2% 0.00in /  0mm 889 W/m2
14:44 90.8 °F /  32.7 °C 66.8 °F /  19.3 °C 30.08in /  1018.5hPa WNW 0.9mph /  1.4km/h 6mph /  9.7km/h 45.4% 0.00in /  0mm 860 W/m2
14:49 90.8 °F /  32.7 °C 66.5 °F /  19.2 °C 30.08in /  1018.5hPa WNW 1.2mph /  1.9km/h 11mph /  17.7km/h 45% 0.00in /  0mm 849 W/m2
14:54 90.8 °F /  32.7 °C 63.9 °F /  17.7 °C 30.08in /  1018.5hPa WNW 2.8mph /  4.5km/h 11mph /  17.7km/h 41.1% 0.00in /  0mm 844 W/m2
14:59 90.6 °F /  32.6 °C 63.4 °F /  17.4 °C 30.08in /  1018.5hPa WSW 1.8mph /  2.9km/h 11mph /  17.7km/h 40.6% 0.00in /  0mm 837 W/m2
15:04 90.5 °F /  32.5 °C 62.5 °F /  16.9 °C 30.08in /  1018.5hPa West 2.2mph /  3.5km/h 11mph /  17.7km/h 39.5% 0.00in /  0mm 833 W/m2
15:09 90.5 °F /  32.5 °C 62.9 °F /  17.2 °C 30.07in /  1018.2hPa WNW 1.4mph /  2.3km/h 8mph /  12.9km/h 40% 0.00in /  0mm 817 W/m2
15:13 90.4 °F /  32.4 °C 62.8 °F /  17.1 °C 30.07in /  1018.2hPa West 0.5mph /  0.8km/h 8mph /  12.9km/h 39.9% 0.00in /  0mm 814 W/m2
15:19 90.7 °F /  32.6 °C 63.6 °F /  17.6 °C 30.07in /  1018.2hPa West 0.3mph /  0.5km/h 8mph /  12.9km/h 40.7% 0.00in /  0mm 795 W/m2
15:24 91.1 °F /  32.8 °C 64.7 °F /  18.2 °C 30.07in /  1018.2hPa West 0.4mph /  0.6km/h 8mph /  12.9km/h 41.7% 0.00in /  0mm 779 W/m2
15:29 91.4 °F /  33 °C 64 °F /  17.8 °C 30.07in /  1018.2hPa West 0.7mph /  1.1km/h 8mph /  12.9km/h 40.4% 0.00in /  0mm 773 W/m2
15:34 91.6 °F /  33.1 °C 64.4 °F /  18 °C 30.07in /  1018.2hPa West 1.4mph /  2.3km/h 8mph /  12.9km/h 40.7% 0.00in /  0mm 758 W/m2
15:39 91.6 °F /  33.1 °C 64.5 °F /  18.1 °C 30.07in /  1018.2hPa SW 1.2mph /  1.9km/h 10mph /  16.1km/h 40.9% 0.00in /  0mm 747 W/m2
15:44 91.4 °F /  33 °C 63.5 °F /  17.5 °C 30.07in /  1018.2hPa SW 1mph /  1.6km/h 10mph /  16.1km/h 39.7% 0.00in /  0mm 735 W/m2
15:49 91.3 °F /  32.9 °C 64.4 °F /  18 °C 30.07in /  1018.2hPa SW 0.6mph /  1km/h 10mph /  16.1km/h 41.1% 0.00in /  0mm 729 W/m2
15:54 91.3 °F /  32.9 °C 63.2 °F /  17.3 °C 30.07in /  1018.2hPa SW 0.1mph /  0.2km/h 10mph /  16.1km/h 39.4% 0.00in /  0mm 710 W/m2
15:59 91.4 °F /  33 °C 63.1 °F /  17.3 °C 30.07in /  1018.2hPa SW 0.8mph /  1.3km/h 10mph /  16.1km/h 39.2% 0.00in /  0mm 700 W/m2
16:00 91.4 °F /  33 °C 64.4 °F /  18 °C 30.06in /  1017.8hPa Calm   10mph /  16.1km/h 41% 0.00in /  0mm 686 W/m2
16:09 91.2 °F /  32.9 °C 62.8 °F /  17.1 °C 30.06in /  1017.8hPa West 1.9mph /  3.1km/h 7mph /  11.3km/h 39% 0.00in /  0mm 675 W/m2
16:14 90.9 °F /  32.7 °C 62.7 °F /  17.1 °C 30.06in /  1017.8hPa West 0.7mph /  1.1km/h 7mph /  11.3km/h 39.2% 0.00in /  0mm 659 W/m2
16:19 90.6 °F /  32.6 °C 63.5 °F /  17.5 °C 30.06in /  1017.8hPa West 0.9mph /  1.4km/h 7mph /  11.3km/h 40.7% 0.00in /  0mm 58 W/m2
16:24 90.3 °F /  32.4 °C 63.2 °F /  17.3 °C 30.06in /  1017.8hPa WSW 0.3mph /  0.5km/h 7mph /  11.3km/h 40.6% 0.00in /  0mm 63 W/m2
16:29 90.1 °F /  32.3 °C 63.7 °F /  17.6 °C 30.06in /  1017.8hPa WSW 0.3mph /  0.5km/h 7mph /  11.3km/h 41.6% 0.00in /  0mm 63 W/m2
16:34 90 °F /  32.2 °C 63.4 °F /  17.4 °C 30.06in /  1017.8hPa WSW 0.2mph /  0.3km/h 7mph /  11.3km/h 41.4% 0.00in /  0mm 63 W/m2
16:39 89.7 °F /  32.1 °C 62.9 °F /  17.2 °C 30.06in /  1017.8hPa WSW 0.3mph /  0.5km/h 3mph /  4.8km/h 41% 0.00in /  0mm 63 W/m2
16:44 89.4 °F /  31.9 °C 64.4 °F /  18 °C 30.05in /  1017.5hPa West 0.4mph /  0.6km/h 3mph /  4.8km/h 43.6% 0.00in /  0mm 62 W/m2
16:48 89.3 °F /  31.8 °C 65.1 °F /  18.4 °C 30.06in /  1017.8hPa WSW 0.1mph /  0.2km/h 4mph /  6.4km/h 44.8% 0.00in /  0mm 58 W/m2
17:00 89 °F /  31.7 °C 63.6 °F /  17.6 °C 30.06in /  1017.8hPa Calm   4mph /  6.4km/h 43% 0.00in /  0mm 55 W/m2
17:30 88.2 °F /  31.2 °C 64.2 °F /  17.9 °C 30.05in /  1017.5hPa Calm   4mph /  6.4km/h 45% 0.00in /  0mm 43 W/m2
18:00 87.7 °F /  30.9 °C 64.4 °F /  18 °C 30.05in /  1017.5hPa Calm   5mph /  8km/h 46% 0.00in /  0mm 36 W/m2
18:30 86.3 °F /  30.2 °C 66.1 °F /  18.9 °C 30.05in /  1017.5hPa Calm   3mph /  4.8km/h 51% 0.00in /  0mm 33 W/m2
19:30 83.2 °F /  28.4 °C 66.4 °F /  19.1 °C 30.05in /  1017.5hPa Calm   3mph /  4.8km/h 57% 0.00in /  0mm 17 W/m2
20:04 81.6 °F /  27.6 °C 67.3 °F /  19.6 °C 30.05in /  1017.5hPa Calm     62% 0.00in /  0mm 0 W/m2
20:09 81.5 °F /  27.5 °C 67.4 °F /  19.7 °C 30.06in /  1017.8hPa Calm     62.4% 0.00in /  0mm 0 W/m2
20:14 81.2 °F /  27.3 °C 67.5 °F /  19.7 °C 30.06in /  1017.8hPa Calm     63.2% 0.00in /  0mm 0 W/m2
20:19 81 °F /  27.2 °C 67.7 °F /  19.8 °C 30.05in /  1017.5hPa Calm     64% 0.00in /  0mm 0 W/m2
20:24 80.7 °F /  27.1 °C 67.8 °F /  19.9 °C 30.05in /  1017.5hPa Calm   1mph /  1.6km/h 64.8% 0.00in /  0mm 0 W/m2
20:29 80.5 °F /  26.9 °C 67.9 °F /  19.9 °C 30.05in /  1017.5hPa Calm   1mph /  1.6km/h 65.4% 0.00in /  0mm 0 W/m2
20:34 80.2 °F /  26.8 °C 67.9 °F /  19.9 °C 30.05in /  1017.5hPa Calm   1mph /  1.6km/h 66.1% 0.00in /  0mm 0 W/m2
20:39 80 °F /  26.7 °C 68.1 °F /  20.1 °C 30.05in /  1017.5hPa Calm   1mph /  1.6km/h 67% 0.00in /  0mm 0 W/m2
20:44 79.8 °F /  26.6 °C 68.3 °F /  20.2 °C 30.05in /  1017.5hPa Calm   1mph /  1.6km/h 67.9% 0.00in /  0mm 0 W/m2
20:49 79.6 °F /  26.4 °C 68.5 °F /  20.3 °C 30.06in /  1017.8hPa Calm   1mph /  1.6km/h 68.9% 0.00in /  0mm 0 W/m2
20:54 79.4 °F /  26.3 °C 68.5 °F /  20.3 °C 30.06in /  1017.8hPa Calm   1mph /  1.6km/h 69.3% 0.00in /  0mm 0 W/m2
20:59 79.3 °F /  26.3 °C 68.6 °F /  20.3 °C 30.06in /  1017.8hPa Calm   1mph /  1.6km/h 70% 0.00in /  0mm 0 W/m2
21:04 79.1 °F /  26.2 °C 68.6 °F /  20.3 °C 30.06in /  1017.8hPa WSW 0.1mph /  0.2km/h 1mph /  1.6km/h 70.4% 0.00in /  0mm 0 W/m2
21:09 78.9 °F /  26.1 °C 68.7 °F /  20.4 °C 30.06in /  1017.8hPa Calm   1mph /  1.6km/h 71% 0.00in /  0mm 0 W/m2
21:14 78.7 °F /  25.9 °C 68.7 °F /  20.4 °C 30.06in /  1017.8hPa Calm   1mph /  1.6km/h 71.4% 0.00in /  0mm 0 W/m2
21:19 78.6 °F /  25.9 °C 68.8 °F /  20.4 °C 30.07in /  1018.2hPa Calm   1mph /  1.6km/h 72% 0.00in /  0mm 0 W/m2
21:24 78.4 °F /  25.8 °C 68.8 °F /  20.4 °C 30.07in /  1018.2hPa Calm   1mph /  1.6km/h 72.5% 0.00in /  0mm 0 W/m2
21:29 78.2 °F /  25.7 °C 68.9 °F /  20.5 °C 30.07in /  1018.2hPa Calm   1mph /  1.6km/h 73% 0.00in /  0mm 0 W/m2
21:34 78 °F /  25.6 °C 68.7 °F /  20.4 °C 30.07in /  1018.2hPa Calm   1mph /  1.6km/h 73% 0.00in /  0mm 0 W/m2
21:39 77.8 °F /  25.4 °C 68.6 °F /  20.3 °C 30.07in /  1018.2hPa Calm     73.3% 0.00in /  0mm 0 W/m2
21:44 77.6 °F /  25.3 °C 68.7 °F /  20.4 °C 30.07in /  1018.2hPa WSW 0.2mph /  0.3km/h 2mph /  3.2km/h 74% 0.00in /  0mm 0 W/m2
21:49 77.5 °F /  25.3 °C 68.5 °F /  20.3 °C 30.07in /  1018.2hPa WSW 0.1mph /  0.2km/h 2mph /  3.2km/h 73.8% 0.00in /  0mm 0 W/m2
21:54 77.3 °F /  25.2 °C 68.4 °F /  20.2 °C 30.07in /  1018.2hPa Calm   2mph /  3.2km/h 74% 0.00in /  0mm 0 W/m2
21:59 77.2 °F /  25.1 °C 68.4 °F /  20.2 °C 30.07in /  1018.2hPa Calm   2mph /  3.2km/h 74.3% 0.00in /  0mm 0 W/m2
22:04 77 °F /  25 °C 68.4 °F /  20.2 °C 30.07in /  1018.2hPa Calm   2mph /  3.2km/h 74.8% 0.00in /  0mm 0 W/m2
22:09 76.9 °F /  24.9 °C 68.4 °F /  20.2 °C 30.07in /  1018.2hPa Calm   1mph /  1.6km/h 75% 0.00in /  0mm 0 W/m2
22:14 76.7 °F /  24.8 °C 68.2 °F /  20.1 °C 30.07in /  1018.2hPa Calm   1mph /  1.6km/h 75% 0.00in /  0mm 0 W/m2
22:19 76.5 °F /  24.7 °C 68.1 °F /  20.1 °C 30.07in /  1018.2hPa Calm   1mph /  1.6km/h 75.2% 0.00in /  0mm 0 W/m2
22:24 76.4 °F /  24.7 °C 68.2 °F /  20.1 °C 30.07in /  1018.2hPa Calm   1mph /  1.6km/h 76% 0.00in /  0mm 0 W/m2
22:29 76.2 °F /  24.6 °C 68.1 °F /  20.1 °C 30.07in /  1018.2hPa WSW 0.1mph /  0.2km/h 1mph /  1.6km/h 76% 0.00in /  0mm 0 W/m2
22:34 76 °F /  24.4 °C 67.9 °F /  19.9 °C 30.07in /  1018.2hPa Calm   1mph /  1.6km/h 76% 0.00in /  0mm 0 W/m2
22:39 75.8 °F /  24.3 °C 67.7 °F /  19.8 °C 30.07in /  1018.2hPa Calm     76% 0.00in /  0mm 0 W/m2
22:44 75.7 °F /  24.3 °C 67.6 °F /  19.8 °C 30.07in /  1018.2hPa Calm     76% 0.00in /  0mm 0 W/m2
22:49 75.5 °F /  24.2 °C 67.4 °F /  19.7 °C 30.07in /  1018.2hPa Calm   1mph /  1.6km/h 76% 0.00in /  0mm 0 W/m2
22:54 75.4 °F /  24.1 °C 67.3 °F /  19.6 °C 30.07in /  1018.2hPa Calm   1mph /  1.6km/h 76% 0.00in /  0mm 0 W/m2
22:59 75.3 °F /  24.1 °C 67.2 °F /  19.6 °C 30.07in /  1018.2hPa Calm   1mph /  1.6km/h 76% 0.00in /  0mm 0 W/m2
23:04 75.1 °F /  23.9 °C 67 °F /  19.4 °C 30.07in /  1018.2hPa Calm   1mph /  1.6km/h 76% 0.00in /  0mm 0 W/m2
23:09 74.9 °F /  23.8 °C 66.9 °F /  19.4 °C 30.07in /  1018.2hPa Calm   1mph /  1.6km/h 76% 0.00in /  0mm 0 W/m2
23:14 74.7 °F /  23.7 °C 66.9 °F /  19.4 °C 30.07in /  1018.2hPa Calm   1mph /  1.6km/h 76.7% 0.00in /  0mm 0 W/m2
23:19 74.5 °F /  23.6 °C 66.9 °F /  19.4 °C 30.07in /  1018.2hPa Calm   1mph /  1.6km/h 77% 0.00in /  0mm 0 W/m2
23:24 74.3 °F /  23.5 °C 66.7 °F /  19.3 °C 30.07in /  1018.2hPa Calm   1mph /  1.6km/h 77% 0.00in /  0mm 0 W/m2
23:29 74.1 °F /  23.4 °C 66.5 °F /  19.2 °C 30.07in /  1018.2hPa Calm   1mph /  1.6km/h 77% 0.00in /  0mm 0 W/m2
23:34 74 °F /  23.3 °C 66.5 °F /  19.2 °C 30.07in /  1018.2hPa Calm   1mph /  1.6km/h 77.4% 0.00in /  0mm 0 W/m2
23:39 73.8 °F /  23.2 °C 66.3 °F /  19.1 °C 30.07in /  1018.2hPa Calm     77.3% 0.00in /  0mm 0 W/m2
23:44 73.7 °F /  23.2 °C 66.1 °F /  18.9 °C 30.07in /  1018.2hPa Calm     77% 0.00in /  0mm 0 W/m2
23:49 73.6 °F /  23.1 °C 66 °F /  18.9 °C 30.07in /  1018.2hPa Calm     77% 0.00in /  0mm 0 W/m2
23:54 73.6 °F /  23.1 °C 65.9 °F /  18.8 °C 30.07in /  1018.2hPa Calm     77% 0.00in /  0mm 0 W/m2
23:59 73.4 °F /  23 °C 66.1 °F /  18.9 °C 30.07in /  1018.2hPa Calm     77.8% 0.00in /  0mm 0 W/m2
Hartford County Weather
Compliments of Weather Underground - 2 mb